LIMF/TRN METAR and TAF weather

Enter ICAO airport designator
Station Type Date Time Source
LIMF METAR 2021/06/24 05:50 UTC NOAA

LIMF 240550Z VRB01KT 9999 FEW120 20/14 Q1017


Station Type Date Time Source
LIMF Decoded METAR 2021/06/24 05:50 UTC NOAA

Torino / Caselle, Italy (LIMF) 45-13N 007-39E 287M
Jun 24, 2021 - 01:50 AM EDT / 2021.06.24 0550 UTC
Wind: Variable at 1 MPH (1 KT):0
Visibility: greater than 7 mile(s):0
Sky conditions: mostly clear
Temperature: 68 F (20 C)
Dew Point: 57 F (14 C)
Relative Humidity: 68%
Pressure (altimeter): 30.03 in. Hg (1017 hPa)
ob: LIMF 240550Z VRB01KT 9999 FEW120 20/14 Q1017
cycle: 6

Station Type Date Time Source
LIMF TAF 2021/06/24 06:21 UTC NOAA

TAF LIMF 240500Z 2406/2506 VRB06KT 9999 SCT050

Example: see airport list